sensor_id;sensor_type;location;lat;lon;timestamp;temperature;humidity
12504;DHT22;6316;48.118;-1.690;2023-10-31T00:01:21;11.60;99.90
12504;DHT22;6316;48.118;-1.690;2023-10-31T00:03:46;11.50;99.90
12504;DHT22;6316;48.118;-1.690;2023-10-31T00:06:12;11.50;99.90
12504;DHT22;6316;48.118;-1.690;2023-10-31T00:08:38;11.50;99.90
12504;DHT22;6316;48.118;-1.690;2023-10-31T00:11:03;11.50;99.90
12504;DHT22;6316;48.118;-1.690;2023-10-31T00:13:29;11.50;99.90
12504;DHT22;6316;48.118;-1.690;2023-10-31T00:15:55;11.50;99.90
12504;DHT22;6316;48.118;-1.690;2023-10-31T00:18:20;11.40;99.90
12504;DHT22;6316;48.118;-1.690;2023-10-31T00:20:46;11.40;99.90
12504;DHT22;6316;48.118;-1.690;2023-10-31T00:23:12;11.40;99.90
12504;DHT22;6316;48.118;-1.690;2023-10-31T00:25:37;11.40;99.90
12504;DHT22;6316;48.118;-1.690;2023-10-31T00:28:03;11.40;99.90
12504;DHT22;6316;48.118;-1.690;2023-10-31T00:30:29;11.40;99.90
12504;DHT22;6316;48.118;-1.690;2023-10-31T00:32:55;11.40;99.90
12504;DHT22;6316;48.118;-1.690;2023-10-31T00:35:20;11.40;99.90
12504;DHT22;6316;48.118;-1.690;2023-10-31T00:37:46;11.40;99.90
12504;DHT22;6316;48.118;-1.690;2023-10-31T00:40:12;11.40;99.90
12504;DHT22;6316;48.118;-1.690;2023-10-31T00:42:38;11.40;99.90
12504;DHT22;6316;48.118;-1.690;2023-10-31T00:45:06;11.40;99.90
12504;DHT22;6316;48.118;-1.690;2023-10-31T00:47:32;11.40;99.90
12504;DHT22;6316;48.118;-1.690;2023-10-31T00:49:58;11.40;99.90
12504;DHT22;6316;48.118;-1.690;2023-10-31T00:52:24;11.40;99.90
12504;DHT22;6316;48.118;-1.690;2023-10-31T00:54:49;11.40;99.90
12504;DHT22;6316;48.118;-1.690;2023-10-31T00:57:15;11.40;99.90
12504;DHT22;6316;48.118;-1.690;2023-10-31T00:59:41;11.40;99.90
12504;DHT22;6316;48.118;-1.690;2023-10-31T01:02:06;11.50;99.90
12504;DHT22;6316;48.118;-1.690;2023-10-31T01:04:32;11.50;99.90
12504;DHT22;6316;48.118;-1.690;2023-10-31T01:06:58;11.50;99.90
12504;DHT22;6316;48.118;-1.690;2023-10-31T01:09:23;11.60;99.90
12504;DHT22;6316;48.118;-1.690;2023-10-31T01:11:49;11.60;99.90
12504;DHT22;6316;48.118;-1.690;2023-10-31T01:14:15;11.60;99.90
12504;DHT22;6316;48.118;-1.690;2023-10-31T01:16:41;11.70;99.90
12504;DHT22;6316;48.118;-1.690;2023-10-31T01:19:06;11.70;99.90
12504;DHT22;6316;48.118;-1.690;2023-10-31T01:21:33;11.70;99.90
12504;DHT22;6316;48.118;-1.690;2023-10-31T01:23:59;11.80;99.90
12504;DHT22;6316;48.118;-1.690;2023-10-31T01:26:25;11.80;99.90
12504;DHT22;6316;48.118;-1.690;2023-10-31T01:28:50;11.80;99.90
12504;DHT22;6316;48.118;-1.690;2023-10-31T01:31:17;11.80;99.90
12504;DHT22;6316;48.118;-1.690;2023-10-31T01:33:42;11.80;99.90
12504;DHT22;6316;48.118;-1.690;2023-10-31T01:36:08;11.80;99.90
12504;DHT22;6316;48.118;-1.690;2023-10-31T01:38:36;11.80;99.90
12504;DHT22;6316;48.118;-1.690;2023-10-31T01:41:02;11.80;99.90
12504;DHT22;6316;48.118;-1.690;2023-10-31T01:45:56;11.80;99.90
12504;DHT22;6316;48.118;-1.690;2023-10-31T01:48:22;11.80;99.90
12504;DHT22;6316;48.118;-1.690;2023-10-31T01:50:50;11.80;99.90
12504;DHT22;6316;48.118;-1.690;2023-10-31T01:53:16;11.80;99.90
12504;DHT22;6316;48.118;-1.690;2023-10-31T01:55:43;11.80;99.90
12504;DHT22;6316;48.118;-1.690;2023-10-31T01:58:10;11.70;99.90
12504;DHT22;6316;48.118;-1.690;2023-10-31T02:00:40;11.70;99.90
12504;DHT22;6316;48.118;-1.690;2023-10-31T02:03:07;11.70;99.90
12504;DHT22;6316;48.118;-1.690;2023-10-31T02:05:34;11.70;99.90
12504;DHT22;6316;48.118;-1.690;2023-10-31T02:08:00;11.70;99.90
12504;DHT22;6316;48.118;-1.690;2023-10-31T02:10:26;11.70;99.90
12504;DHT22;6316;48.118;-1.690;2023-10-31T02:12:52;11.70;99.90
12504;DHT22;6316;48.118;-1.690;2023-10-31T02:15:17;11.70;99.90
12504;DHT22;6316;48.118;-1.690;2023-10-31T02:17:43;11.70;99.90
12504;DHT22;6316;48.118;-1.690;2023-10-31T02:20:09;11.70;99.90
12504;DHT22;6316;48.118;-1.690;2023-10-31T02:22:35;11.70;99.90
12504;DHT22;6316;48.118;-1.690;2023-10-31T02:25:00;11.70;99.90
12504;DHT22;6316;48.118;-1.690;2023-10-31T02:27:26;11.70;99.90
12504;DHT22;6316;48.118;-1.690;2023-10-31T02:29:51;11.70;99.90
12504;DHT22;6316;48.118;-1.690;2023-10-31T02:32:17;11.70;99.90
12504;DHT22;6316;48.118;-1.690;2023-10-31T02:34:44;11.80;99.90
12504;DHT22;6316;48.118;-1.690;2023-10-31T02:37:10;11.80;99.90
12504;DHT22;6316;48.118;-1.690;2023-10-31T02:39:37;11.70;99.90
12504;DHT22;6316;48.118;-1.690;2023-10-31T02:42:03;11.70;99.90
12504;DHT22;6316;48.118;-1.690;2023-10-31T02:44:29;11.70;99.90
12504;DHT22;6316;48.118;-1.690;2023-10-31T02:46:54;11.70;99.90
12504;DHT22;6316;48.118;-1.690;2023-10-31T02:49:21;11.70;99.90
12504;DHT22;6316;48.118;-1.690;2023-10-31T02:51:46;11.70;99.90
12504;DHT22;6316;48.118;-1.690;2023-10-31T02:54:12;11.70;99.90
12504;DHT22;6316;48.118;-1.690;2023-10-31T02:56:38;11.70;99.90
12504;DHT22;6316;48.118;-1.690;2023-10-31T02:59:04;11.70;99.90
12504;DHT22;6316;48.118;-1.690;2023-10-31T03:01:30;11.70;99.90
12504;DHT22;6316;48.118;-1.690;2023-10-31T03:03:56;11.60;99.90
12504;DHT22;6316;48.118;-1.690;2023-10-31T03:06:22;11.60;99.90
12504;DHT22;6316;48.118;-1.690;2023-10-31T03:08:47;11.50;99.90
12504;DHT22;6316;48.118;-1.690;2023-10-31T03:11:26;11.50;99.90
12504;DHT22;6316;48.118;-1.690;2023-10-31T03:13:52;11.40;99.90
12504;DHT22;6316;48.118;-1.690;2023-10-31T03:16:22;11.40;99.90
12504;DHT22;6316;48.118;-1.690;2023-10-31T03:18:48;11.30;99.90
12504;DHT22;6316;48.118;-1.690;2023-10-31T03:21:14;11.30;99.90
12504;DHT22;6316;48.118;-1.690;2023-10-31T03:23:44;11.30;99.90
12504;DHT22;6316;48.118;-1.690;2023-10-31T03:26:11;11.20;99.90
12504;DHT22;6316;48.118;-1.690;2023-10-31T03:28:37;11.20;99.90
12504;DHT22;6316;48.118;-1.690;2023-10-31T03:31:03;11.20;99.90
12504;DHT22;6316;48.118;-1.690;2023-10-31T03:33:28;11.10;99.90
12504;DHT22;6316;48.118;-1.690;2023-10-31T03:35:54;11.10;99.90
12504;DHT22;6316;48.118;-1.690;2023-10-31T03:38:19;11.10;99.90
12504;DHT22;6316;48.118;-1.690;2023-10-31T03:40:45;11.00;99.90
12504;DHT22;6316;48.118;-1.690;2023-10-31T03:43:11;11.00;99.90
12504;DHT22;6316;48.118;-1.690;2023-10-31T03:45:36;11.00;99.90
12504;DHT22;6316;48.118;-1.690;2023-10-31T03:48:02;11.00;99.90
12504;DHT22;6316;48.118;-1.690;2023-10-31T03:50:28;10.90;99.90
12504;DHT22;6316;48.118;-1.690;2023-10-31T03:52:54;10.90;99.90
12504;DHT22;6316;48.118;-1.690;2023-10-31T03:55:19;10.90;99.90
12504;DHT22;6316;48.118;-1.690;2023-10-31T03:57:45;10.90;99.90
12504;DHT22;6316;48.118;-1.690;2023-10-31T04:00:11;10.90;99.90
12504;DHT22;6316;48.118;-1.690;2023-10-31T04:02:38;10.80;99.90
12504;DHT22;6316;48.118;-1.690;2023-10-31T04:05:05;10.80;99.90
12504;DHT22;6316;48.118;-1.690;2023-10-31T04:07:30;10.80;99.90
12504;DHT22;6316;48.118;-1.690;2023-10-31T04:09:56;10.80;99.90
12504;DHT22;6316;48.118;-1.690;2023-10-31T04:12:22;10.70;99.90
12504;DHT22;6316;48.118;-1.690;2023-10-31T04:14:47;10.70;99.90
12504;DHT22;6316;48.118;-1.690;2023-10-31T04:17:13;10.70;99.90
12504;DHT22;6316;48.118;-1.690;2023-10-31T04:19:38;10.70;99.90
12504;DHT22;6316;48.118;-1.690;2023-10-31T04:22:04;10.60;99.90
12504;DHT22;6316;48.118;-1.690;2023-10-31T04:24:30;10.60;99.90
12504;DHT22;6316;48.118;-1.690;2023-10-31T04:26:56;10.60;99.90
12504;DHT22;6316;48.118;-1.690;2023-10-31T04:29:22;10.60;99.90
12504;DHT22;6316;48.118;-1.690;2023-10-31T04:31:48;10.60;99.90
12504;DHT22;6316;48.118;-1.690;2023-10-31T04:34:13;10.60;99.90
12504;DHT22;6316;48.118;-1.690;2023-10-31T04:36:39;10.60;99.90
12504;DHT22;6316;48.118;-1.690;2023-10-31T04:39:05;10.50;99.90
12504;DHT22;6316;48.118;-1.690;2023-10-31T04:41:31;10.50;99.90
12504;DHT22;6316;48.118;-1.690;2023-10-31T04:43:57;10.50;99.90
12504;DHT22;6316;48.118;-1.690;2023-10-31T04:46:24;10.50;99.90
12504;DHT22;6316;48.118;-1.690;2023-10-31T04:48:52;10.50;99.90
12504;DHT22;6316;48.118;-1.690;2023-10-31T04:51:18;10.50;99.90
12504;DHT22;6316;48.118;-1.690;2023-10-31T04:53:44;10.50;99.90
12504;DHT22;6316;48.118;-1.690;2023-10-31T04:56:14;10.50;99.90
12504;DHT22;6316;48.118;-1.690;2023-10-31T04:58:43;10.50;99.90
12504;DHT22;6316;48.118;-1.690;2023-10-31T05:01:11;10.40;99.90
12504;DHT22;6316;48.118;-1.690;2023-10-31T05:03:37;10.40;99.90
12504;DHT22;6316;48.118;-1.690;2023-10-31T05:06:03;10.40;99.90
12504;DHT22;6316;48.118;-1.690;2023-10-31T05:08:29;10.40;99.90
12504;DHT22;6316;48.118;-1.690;2023-10-31T05:10:55;10.40;99.90
12504;DHT22;6316;48.118;-1.690;2023-10-31T05:13:21;10.40;99.90
12504;DHT22;6316;48.118;-1.690;2023-10-31T05:15:47;10.40;99.90
12504;DHT22;6316;48.118;-1.690;2023-10-31T05:18:12;10.40;99.90
12504;DHT22;6316;48.118;-1.690;2023-10-31T05:20:38;10.40;99.90
12504;DHT22;6316;48.118;-1.690;2023-10-31T05:23:03;10.30;99.90
12504;DHT22;6316;48.118;-1.690;2023-10-31T05:25:29;10.30;99.90
12504;DHT22;6316;48.118;-1.690;2023-10-31T05:27:55;10.30;99.90
12504;DHT22;6316;48.118;-1.690;2023-10-31T05:30:21;10.30;99.90
12504;DHT22;6316;48.118;-1.690;2023-10-31T05:32:47;10.30;99.90
12504;DHT22;6316;48.118;-1.690;2023-10-31T05:35:12;10.30;99.90
12504;DHT22;6316;48.118;-1.690;2023-10-31T05:37:38;10.30;99.90
12504;DHT22;6316;48.118;-1.690;2023-10-31T05:40:04;10.20;99.90
12504;DHT22;6316;48.118;-1.690;2023-10-31T05:42:30;10.20;99.90
12504;DHT22;6316;48.118;-1.690;2023-10-31T05:44:55;10.20;99.90
12504;DHT22;6316;48.118;-1.690;2023-10-31T05:47:22;10.20;99.90
12504;DHT22;6316;48.118;-1.690;2023-10-31T05:49:48;10.20;99.90
12504;DHT22;6316;48.118;-1.690;2023-10-31T05:52:14;10.20;99.90
12504;DHT22;6316;48.118;-1.690;2023-10-31T05:54:40;10.20;99.90
12504;DHT22;6316;48.118;-1.690;2023-10-31T05:57:06;10.20;99.90
12504;DHT22;6316;48.118;-1.690;2023-10-31T05:59:31;10.20;99.90
12504;DHT22;6316;48.118;-1.690;2023-10-31T06:01:58;10.20;99.90
12504;DHT22;6316;48.118;-1.690;2023-10-31T06:04:24;10.20;99.90
12504;DHT22;6316;48.118;-1.690;2023-10-31T06:06:50;10.20;99.90
12504;DHT22;6316;48.118;-1.690;2023-10-31T06:09:16;10.20;99.90
12504;DHT22;6316;48.118;-1.690;2023-10-31T06:11:43;10.20;99.90
12504;DHT22;6316;48.118;-1.690;2023-10-31T06:14:10;10.20;99.90
12504;DHT22;6316;48.118;-1.690;2023-10-31T06:16:43;10.20;99.90
12504;DHT22;6316;48.118;-1.690;2023-10-31T06:19:09;10.20;99.90
12504;DHT22;6316;48.118;-1.690;2023-10-31T06:21:35;10.20;99.90
12504;DHT22;6316;48.118;-1.690;2023-10-31T06:24:02;10.20;99.90
12504;DHT22;6316;48.118;-1.690;2023-10-31T06:26:28;10.20;99.90
12504;DHT22;6316;48.118;-1.690;2023-10-31T06:28:54;10.20;99.90
12504;DHT22;6316;48.118;-1.690;2023-10-31T06:31:20;10.20;99.90
12504;DHT22;6316;48.118;-1.690;2023-10-31T06:33:45;10.20;99.90
12504;DHT22;6316;48.118;-1.690;2023-10-31T06:36:11;10.20;99.90
12504;DHT22;6316;48.118;-1.690;2023-10-31T06:38:37;10.10;99.90
12504;DHT22;6316;48.118;-1.690;2023-10-31T06:41:03;10.10;99.90
12504;DHT22;6316;48.118;-1.690;2023-10-31T06:43:28;10.10;99.90
12504;DHT22;6316;48.118;-1.690;2023-10-31T06:45:54;10.20;99.90
12504;DHT22;6316;48.118;-1.690;2023-10-31T06:48:20;10.10;99.90
12504;DHT22;6316;48.118;-1.690;2023-10-31T06:50:46;10.10;99.90
12504;DHT22;6316;48.118;-1.690;2023-10-31T06:53:12;10.10;99.90
12504;DHT22;6316;48.118;-1.690;2023-10-31T06:55:37;10.20;99.90
12504;DHT22;6316;48.118;-1.690;2023-10-31T06:58:03;10.20;99.90
12504;DHT22;6316;48.118;-1.690;2023-10-31T07:00:29;10.20;99.90
12504;DHT22;6316;48.118;-1.690;2023-10-31T07:02:55;10.20;99.90
12504;DHT22;6316;48.118;-1.690;2023-10-31T07:05:20;10.20;99.90
12504;DHT22;6316;48.118;-1.690;2023-10-31T07:07:49;10.30;99.90
12504;DHT22;6316;48.118;-1.690;2023-10-31T07:10:15;10.30;99.90
12504;DHT22;6316;48.118;-1.690;2023-10-31T07:12:40;10.40;99.90
12504;DHT22;6316;48.118;-1.690;2023-10-31T07:15:06;10.50;99.90
12504;DHT22;6316;48.118;-1.690;2023-10-31T07:17:32;10.60;99.90
12504;DHT22;6316;48.118;-1.690;2023-10-31T07:19:58;10.70;99.90
12504;DHT22;6316;48.118;-1.690;2023-10-31T07:22:24;10.80;99.90
12504;DHT22;6316;48.118;-1.690;2023-10-31T07:24:51;10.90;99.90
12504;DHT22;6316;48.118;-1.690;2023-10-31T07:27:17;11.00;99.90
12504;DHT22;6316;48.118;-1.690;2023-10-31T07:29:43;11.00;99.90
12504;DHT22;6316;48.118;-1.690;2023-10-31T07:32:09;11.10;99.90
12504;DHT22;6316;48.118;-1.690;2023-10-31T07:34:35;11.20;99.90
12504;DHT22;6316;48.118;-1.690;2023-10-31T07:37:00;11.30;99.90
12504;DHT22;6316;48.118;-1.690;2023-10-31T07:39:26;11.30;99.90
12504;DHT22;6316;48.118;-1.690;2023-10-31T07:41:52;11.40;99.90
12504;DHT22;6316;48.118;-1.690;2023-10-31T07:44:18;11.40;99.90
12504;DHT22;6316;48.118;-1.690;2023-10-31T07:46:43;11.40;99.90
12504;DHT22;6316;48.118;-1.690;2023-10-31T07:49:09;11.40;99.90
12504;DHT22;6316;48.118;-1.690;2023-10-31T07:51:35;11.40;99.90
12504;DHT22;6316;48.118;-1.690;2023-10-31T07:54:00;11.40;99.90
12504;DHT22;6316;48.118;-1.690;2023-10-31T07:56:26;11.40;99.90
12504;DHT22;6316;48.118;-1.690;2023-10-31T07:58:52;11.50;99.90
12504;DHT22;6316;48.118;-1.690;2023-10-31T08:01:18;11.50;99.90
12504;DHT22;6316;48.118;-1.690;2023-10-31T08:03:46;11.60;99.90
12504;DHT22;6316;48.118;-1.690;2023-10-31T08:06:12;11.60;99.90
12504;DHT22;6316;48.118;-1.690;2023-10-31T08:08:38;11.70;99.90
12504;DHT22;6316;48.118;-1.690;2023-10-31T08:11:06;11.70;99.90
12504;DHT22;6316;48.118;-1.690;2023-10-31T08:13:32;11.80;99.90
12504;DHT22;6316;48.118;-1.690;2023-10-31T08:15:58;11.90;99.90
12504;DHT22;6316;48.118;-1.690;2023-10-31T08:18:24;12.00;99.90
12504;DHT22;6316;48.118;-1.690;2023-10-31T08:20:50;12.00;99.90
12504;DHT22;6316;48.118;-1.690;2023-10-31T08:23:17;12.10;99.90
12504;DHT22;6316;48.118;-1.690;2023-10-31T08:25:43;12.10;99.90
12504;DHT22;6316;48.118;-1.690;2023-10-31T08:28:09;12.20;99.90
12504;DHT22;6316;48.118;-1.690;2023-10-31T08:30:35;12.20;99.90
12504;DHT22;6316;48.118;-1.690;2023-10-31T08:33:01;12.30;99.90
12504;DHT22;6316;48.118;-1.690;2023-10-31T08:35:26;12.40;99.90
12504;DHT22;6316;48.118;-1.690;2023-10-31T08:37:53;12.50;99.90
12504;DHT22;6316;48.118;-1.690;2023-10-31T08:40:19;12.50;99.90
12504;DHT22;6316;48.118;-1.690;2023-10-31T08:42:45;12.60;99.90
12504;DHT22;6316;48.118;-1.690;2023-10-31T08:45:11;12.70;99.90
12504;DHT22;6316;48.118;-1.690;2023-10-31T08:47:37;12.70;99.90
12504;DHT22;6316;48.118;-1.690;2023-10-31T08:50:04;12.70;99.90
12504;DHT22;6316;48.118;-1.690;2023-10-31T08:52:29;12.80;99.90
12504;DHT22;6316;48.118;-1.690;2023-10-31T08:54:55;12.90;99.90
12504;DHT22;6316;48.118;-1.690;2023-10-31T08:57:22;13.00;99.90
12504;DHT22;6316;48.118;-1.690;2023-10-31T08:59:47;13.10;99.90
12504;DHT22;6316;48.118;-1.690;2023-10-31T09:02:13;13.20;99.90
12504;DHT22;6316;48.118;-1.690;2023-10-31T09:04:38;13.40;99.90
12504;DHT22;6316;48.118;-1.690;2023-10-31T09:07:04;13.50;99.90
12504;DHT22;6316;48.118;-1.690;2023-10-31T09:09:30;13.50;99.90
12504;DHT22;6316;48.118;-1.690;2023-10-31T09:11:55;13.60;99.90
12504;DHT22;6316;48.118;-1.690;2023-10-31T09:14:21;13.70;99.90
12504;DHT22;6316;48.118;-1.690;2023-10-31T09:16:46;13.60;99.90
12504;DHT22;6316;48.118;-1.690;2023-10-31T09:19:12;13.70;99.90
12504;DHT22;6316;48.118;-1.690;2023-10-31T09:21:38;13.70;99.90
12504;DHT22;6316;48.118;-1.690;2023-10-31T09:24:04;13.70;99.90
12504;DHT22;6316;48.118;-1.690;2023-10-31T09:26:29;13.80;99.90
12504;DHT22;6316;48.118;-1.690;2023-10-31T09:28:55;13.80;99.90
12504;DHT22;6316;48.118;-1.690;2023-10-31T09:31:21;13.80;99.90
12504;DHT22;6316;48.118;-1.690;2023-10-31T09:33:47;13.90;99.90
12504;DHT22;6316;48.118;-1.690;2023-10-31T09:36:12;13.90;99.90
12504;DHT22;6316;48.118;-1.690;2023-10-31T09:38:39;13.90;99.90
12504;DHT22;6316;48.118;-1.690;2023-10-31T09:41:06;14.00;99.90
12504;DHT22;6316;48.118;-1.690;2023-10-31T09:43:32;14.00;99.90
12504;DHT22;6316;48.118;-1.690;2023-10-31T09:45:58;14.10;99.90
12504;DHT22;6316;48.118;-1.690;2023-10-31T09:48:26;14.20;99.90
12504;DHT22;6316;48.118;-1.690;2023-10-31T09:50:52;14.20;99.90
12504;DHT22;6316;48.118;-1.690;2023-10-31T09:53:19;14.30;99.90
12504;DHT22;6316;48.118;-1.690;2023-10-31T09:55:48;14.30;99.90
12504;DHT22;6316;48.118;-1.690;2023-10-31T09:58:14;14.40;99.90
12504;DHT22;6316;48.118;-1.690;2023-10-31T10:00:40;14.40;99.90
12504;DHT22;6316;48.118;-1.690;2023-10-31T10:03:08;14.50;99.90
12504;DHT22;6316;48.118;-1.690;2023-10-31T10:05:35;14.60;99.90
12504;DHT22;6316;48.118;-1.690;2023-10-31T10:08:01;14.70;99.90
12504;DHT22;6316;48.118;-1.690;2023-10-31T10:10:28;14.80;99.90
12504;DHT22;6316;48.118;-1.690;2023-10-31T10:12:55;14.90;99.90
12504;DHT22;6316;48.118;-1.690;2023-10-31T10:15:21;15.10;99.90
12504;DHT22;6316;48.118;-1.690;2023-10-31T10:17:51;15.20;99.90
12504;DHT22;6316;48.118;-1.690;2023-10-31T10:20:18;15.30;99.90
12504;DHT22;6316;48.118;-1.690;2023-10-31T10:22:44;15.30;99.90
12504;DHT22;6316;48.118;-1.690;2023-10-31T10:25:11;15.30;99.90
12504;DHT22;6316;48.118;-1.690;2023-10-31T10:27:39;15.30;99.90
12504;DHT22;6316;48.118;-1.690;2023-10-31T10:30:08;15.30;99.90
12504;DHT22;6316;48.118;-1.690;2023-10-31T10:32:34;15.30;99.90
12504;DHT22;6316;48.118;-1.690;2023-10-31T10:35:00;15.40;99.90
12504;DHT22;6316;48.118;-1.690;2023-10-31T10:37:29;15.40;99.90
12504;DHT22;6316;48.118;-1.690;2023-10-31T10:39:56;15.50;99.90
12504;DHT22;6316;48.118;-1.690;2023-10-31T10:42:46;15.50;99.90
12504;DHT22;6316;48.118;-1.690;2023-10-31T10:45:15;15.60;99.90
12504;DHT22;6316;48.118;-1.690;2023-10-31T10:47:46;15.60;99.90
12504;DHT22;6316;48.118;-1.690;2023-10-31T10:50:13;15.70;99.90
12504;DHT22;6316;48.118;-1.690;2023-10-31T10:52:43;15.70;99.90
12504;DHT22;6316;48.118;-1.690;2023-10-31T10:55:13;15.80;99.90
12504;DHT22;6316;48.118;-1.690;2023-10-31T10:58:03;15.90;99.90
12504;DHT22;6316;48.118;-1.690;2023-10-31T11:00:31;15.90;99.90
12504;DHT22;6316;48.118;-1.690;2023-10-31T11:02:57;16.00;99.90
12504;DHT22;6316;48.118;-1.690;2023-10-31T11:05:24;16.00;99.90
12504;DHT22;6316;48.118;-1.690;2023-10-31T11:07:50;16.10;99.90
12504;DHT22;6316;48.118;-1.690;2023-10-31T11:10:17;16.10;99.90
12504;DHT22;6316;48.118;-1.690;2023-10-31T11:12:43;16.20;99.90
12504;DHT22;6316;48.118;-1.690;2023-10-31T11:15:15;16.30;99.90
12504;DHT22;6316;48.118;-1.690;2023-10-31T11:17:45;16.30;99.90
12504;DHT22;6316;48.118;-1.690;2023-10-31T11:20:13;16.40;99.90
12504;DHT22;6316;48.118;-1.690;2023-10-31T11:22:41;16.40;99.90
12504;DHT22;6316;48.118;-1.690;2023-10-31T11:25:14;16.50;99.90
12504;DHT22;6316;48.118;-1.690;2023-10-31T11:27:40;16.50;99.90
12504;DHT22;6316;48.118;-1.690;2023-10-31T11:30:08;16.60;99.90
12504;DHT22;6316;48.118;-1.690;2023-10-31T11:32:49;16.60;99.90
12504;DHT22;6316;48.118;-1.690;2023-10-31T11:35:17;16.60;99.90
12504;DHT22;6316;48.118;-1.690;2023-10-31T11:38:09;16.50;99.90
12504;DHT22;6316;48.118;-1.690;2023-10-31T11:43:14;16.50;99.90
12504;DHT22;6316;48.118;-1.690;2023-10-31T11:45:43;16.60;99.90
12504;DHT22;6316;48.118;-1.690;2023-10-31T11:48:14;16.60;99.90
12504;DHT22;6316;48.118;-1.690;2023-10-31T11:50:40;16.70;99.90
12504;DHT22;6316;48.118;-1.690;2023-10-31T11:53:12;16.70;99.90
12504;DHT22;6316;48.118;-1.690;2023-10-31T11:55:43;16.80;99.90
12504;DHT22;6316;48.118;-1.690;2023-10-31T11:58:20;16.80;99.90
12504;DHT22;6316;48.118;-1.690;2023-10-31T12:00:51;16.80;99.90
12504;DHT22;6316;48.118;-1.690;2023-10-31T12:03:19;16.80;99.90
12504;DHT22;6316;48.118;-1.690;2023-10-31T12:05:55;16.80;99.90
12504;DHT22;6316;48.118;-1.690;2023-10-31T12:10:51;16.80;99.90
12504;DHT22;6316;48.118;-1.690;2023-10-31T12:13:17;16.80;99.90
12504;DHT22;6316;48.118;-1.690;2023-10-31T12:15:52;16.80;99.90
12504;DHT22;6316;48.118;-1.690;2023-10-31T12:18:18;16.80;99.90
12504;DHT22;6316;48.118;-1.690;2023-10-31T12:21:02;16.80;99.90
12504;DHT22;6316;48.118;-1.690;2023-10-31T12:23:28;16.80;99.90
12504;DHT22;6316;48.118;-1.690;2023-10-31T12:25:55;16.80;99.90
12504;DHT22;6316;48.118;-1.690;2023-10-31T12:28:23;16.80;99.90
12504;DHT22;6316;48.118;-1.690;2023-10-31T12:30:51;16.80;99.90
12504;DHT22;6316;48.118;-1.690;2023-10-31T12:33:19;16.80;99.90
12504;DHT22;6316;48.118;-1.690;2023-10-31T12:35:46;16.80;99.90
12504;DHT22;6316;48.118;-1.690;2023-10-31T12:38:12;16.90;99.90
12504;DHT22;6316;48.118;-1.690;2023-10-31T12:40:42;16.90;99.90
12504;DHT22;6316;48.118;-1.690;2023-10-31T12:43:09;16.90;99.90
12504;DHT22;6316;48.118;-1.690;2023-10-31T12:45:35;16.90;99.90
12504;DHT22;6316;48.118;-1.690;2023-10-31T12:48:07;16.90;99.90
12504;DHT22;6316;48.118;-1.690;2023-10-31T12:50:34;17.00;99.90
12504;DHT22;6316;48.118;-1.690;2023-10-31T12:53:00;17.00;99.90
12504;DHT22;6316;48.118;-1.690;2023-10-31T12:55:27;17.00;99.90
12504;DHT22;6316;48.118;-1.690;2023-10-31T12:57:54;17.00;99.90
12504;DHT22;6316;48.118;-1.690;2023-10-31T13:00:21;17.00;99.90
12504;DHT22;6316;48.118;-1.690;2023-10-31T13:03:11;17.00;99.90
12504;DHT22;6316;48.118;-1.690;2023-10-31T13:05:37;17.00;99.90
12504;DHT22;6316;48.118;-1.690;2023-10-31T13:08:13;17.00;99.90
12504;DHT22;6316;48.118;-1.690;2023-10-31T13:10:39;17.00;99.90
12504;DHT22;6316;48.118;-1.690;2023-10-31T13:13:05;16.90;99.90
12504;DHT22;6316;48.118;-1.690;2023-10-31T13:15:31;16.90;99.90
12504;DHT22;6316;48.118;-1.690;2023-10-31T13:17:56;16.90;99.90
12504;DHT22;6316;48.118;-1.690;2023-10-31T13:20:25;16.90;99.90
12504;DHT22;6316;48.118;-1.690;2023-10-31T13:22:50;16.90;99.90
12504;DHT22;6316;48.118;-1.690;2023-10-31T13:25:16;16.90;99.90
12504;DHT22;6316;48.118;-1.690;2023-10-31T13:27:43;17.00;99.90
12504;DHT22;6316;48.118;-1.690;2023-10-31T13:30:10;17.00;99.90
12504;DHT22;6316;48.118;-1.690;2023-10-31T13:32:37;17.00;99.90
12504;DHT22;6316;48.118;-1.690;2023-10-31T13:35:06;17.00;99.90
12504;DHT22;6316;48.118;-1.690;2023-10-31T13:37:35;17.00;99.90
12504;DHT22;6316;48.118;-1.690;2023-10-31T13:40:00;17.00;99.90
12504;DHT22;6316;48.118;-1.690;2023-10-31T13:42:26;16.90;99.90
12504;DHT22;6316;48.118;-1.690;2023-10-31T13:44:53;16.80;99.90
12504;DHT22;6316;48.118;-1.690;2023-10-31T13:47:19;16.90;99.90
12504;DHT22;6316;48.118;-1.690;2023-10-31T13:49:45;16.90;99.90
12504;DHT22;6316;48.118;-1.690;2023-10-31T13:52:10;16.90;99.90
12504;DHT22;6316;48.118;-1.690;2023-10-31T13:54:36;16.90;99.90
12504;DHT22;6316;48.118;-1.690;2023-10-31T13:57:02;16.90;99.90
12504;DHT22;6316;48.118;-1.690;2023-10-31T13:59:27;16.90;99.90
12504;DHT22;6316;48.118;-1.690;2023-10-31T14:01:53;16.80;99.90
12504;DHT22;6316;48.118;-1.690;2023-10-31T14:04:19;16.80;99.90
12504;DHT22;6316;48.118;-1.690;2023-10-31T14:06:45;16.80;99.90
12504;DHT22;6316;48.118;-1.690;2023-10-31T14:09:12;16.80;99.90
12504;DHT22;6316;48.118;-1.690;2023-10-31T14:11:39;16.70;99.90
12504;DHT22;6316;48.118;-1.690;2023-10-31T14:14:05;16.50;99.90
12504;DHT22;6316;48.118;-1.690;2023-10-31T14:16:36;16.50;99.90
12504;DHT22;6316;48.118;-1.690;2023-10-31T14:19:02;16.30;99.90
12504;DHT22;6316;48.118;-1.690;2023-10-31T14:21:29;16.30;99.90
12504;DHT22;6316;48.118;-1.690;2023-10-31T14:23:55;16.20;99.90
12504;DHT22;6316;48.118;-1.690;2023-10-31T14:26:21;16.20;99.90
12504;DHT22;6316;48.118;-1.690;2023-10-31T14:28:47;16.20;99.90
12504;DHT22;6316;48.118;-1.690;2023-10-31T14:31:16;16.30;99.90
12504;DHT22;6316;48.118;-1.690;2023-10-31T14:33:44;16.30;99.90
12504;DHT22;6316;48.118;-1.690;2023-10-31T14:36:11;16.30;99.90
12504;DHT22;6316;48.118;-1.690;2023-10-31T14:38:39;16.30;99.90
12504;DHT22;6316;48.118;-1.690;2023-10-31T14:41:04;16.30;99.90
12504;DHT22;6316;48.118;-1.690;2023-10-31T14:43:31;16.40;99.90
12504;DHT22;6316;48.118;-1.690;2023-10-31T14:45:57;16.30;99.90
12504;DHT22;6316;48.118;-1.690;2023-10-31T14:48:23;16.40;99.90
12504;DHT22;6316;48.118;-1.690;2023-10-31T14:50:49;16.40;99.90
12504;DHT22;6316;48.118;-1.690;2023-10-31T14:53:18;16.40;99.90
12504;DHT22;6316;48.118;-1.690;2023-10-31T14:55:47;16.30;99.90
12504;DHT22;6316;48.118;-1.690;2023-10-31T14:58:12;16.30;99.90
12504;DHT22;6316;48.118;-1.690;2023-10-31T15:00:38;16.30;99.90
12504;DHT22;6316;48.118;-1.690;2023-10-31T15:03:04;16.30;99.90
12504;DHT22;6316;48.118;-1.690;2023-10-31T15:05:30;16.30;99.90
12504;DHT22;6316;48.118;-1.690;2023-10-31T15:07:59;16.30;99.90
12504;DHT22;6316;48.118;-1.690;2023-10-31T15:10:25;16.20;99.90
12504;DHT22;6316;48.118;-1.690;2023-10-31T15:12:54;16.20;99.90
12504;DHT22;6316;48.118;-1.690;2023-10-31T15:15:20;16.30;99.90
12504;DHT22;6316;48.118;-1.690;2023-10-31T15:17:46;16.20;99.90
12504;DHT22;6316;48.118;-1.690;2023-10-31T15:20:14;16.20;99.90
12504;DHT22;6316;48.118;-1.690;2023-10-31T15:22:41;16.20;99.90
12504;DHT22;6316;48.118;-1.690;2023-10-31T15:25:10;16.20;99.90
12504;DHT22;6316;48.118;-1.690;2023-10-31T15:27:36;16.20;99.90
12504;DHT22;6316;48.118;-1.690;2023-10-31T15:30:03;16.20;99.90
12504;DHT22;6316;48.118;-1.690;2023-10-31T15:32:28;16.20;99.90
12504;DHT22;6316;48.118;-1.690;2023-10-31T15:34:54;16.20;99.90